aviador You're here:

K1S5 Decoded Metar

in
Report Time2018-01-18 13:55:00
UTC Time2018-01-18 14:01:49
Flight Rules vfr VFR
Wind360° at 03 kt
Visibility9999 m
Phenomena:N/A
Clouds:Overcast 085 Hf
Expected CloudBase > 400 ft AGL from Temp-Dew spread
Ceiling8,500 ft
Temp05°C
Dew Point04°C (93% RH)
AAT2.6°C
QNH1009 hPa
Raw Report
K1S5 181355Z AUTO 36003KT 10SM OVC085 05/04 A2981 RMK AO2 LTG DSNT
NW T00500037=

Extra information for K1S5:More info

Social comments